EHKD/DHR METAR and TAF weather

Enter ICAO airport designator
Station Type Date Time Source
EHKD METAR 2018/04/19 12:55 UTC NOAA

EHKD 191255Z AUTO 15011KT 110V180 9999 NCD 27/10 Q1025 BLU 17009KT CAVOK


Station Type Date Time Source
EHKD Decoded METAR 2018/04/19 12:55 UTC NOAA

De Kooy, Netherlands (EHKD) 52-55N 004-47E 14M
Apr 19, 2018 - 08:55 AM EDT / 2018.04.19 1255 UTC
Wind: from the SSE (150 degrees) at 13 MPH (11 KT) (direction variable):0
Visibility: greater than 7 mile(s):0
Temperature: 80 F (27 C)
Dew Point: 50 F (10 C)
Relative Humidity: 34%
Pressure (altimeter): 30.27 in. Hg (1025 hPa)
ob: EHKD 191255Z AUTO 15011KT 110V180 9999 NCD 27/10 Q1025 BLU 17009KT CAVOK
cycle: 13

Station Type Date Time Source
EHKD TAF 2018/04/19 09:06 UTC NOAA

TAF EHKD 190821Z 1909/1921 15008KT CAVOK
BECMG 1911/1913 VRB04KT


Example: see airport list